M/T Filos — 9HQB8 — position and weather

sailwx.info

Track history (hours):
 
Tides and Currents Weather Stations Pressure Air Temp Water Temp Dewpoint Dewpoint Depression Visibility Wind Speed Wind Dir Waves Ship Positions

M/T Filos

Last reported at 2016-May-05 07:23 UTC. Time now 2016-May-06 01:44 UTC.
Position N 44°24' W 008°03'.

Length 180 m; draft 7.4 m.

Type: Tanker. MMSI: 224561000.

Date/timePositionNaut miles runAvg speedWind from/ knotsBaromVisibWave heightAir tempDewpointWater temp
2016-May-05 07:23N 44°24' W 008°03'1111.7
2016-May-05 06:27N 44°35' W 007°59'1311.3
2016-May-05 05:19N 44°47' W 007°53'31710.5
2016-May-03 23:08N 49°28' W 004°18'2312.0
2016-May-03 21:14N 49°40' W 003°48'812.4
2016-May-03 20:33N 49°44' W 003°37'1211.9
2016-May-03 19:33N 49°50' W 003°21'1110.9
2016-May-03 18:33N 49°56' W 003°06'10 9.8
2016-May-03 17:34N 49°59' W 002°52'10 9.2
2016-May-03 16:29N 50°02' W 002°37'8211.7
2016-May-03 09:30N 50°23' W 000°34'1212.3
2016-May-03 08:33N 50°26' W 000°16'1111.3
2016-May-03 07:33N 50°29' E 000°01'1010.4
2016-May-03 06:33N 50°32' E 000°17'10 9.9
2016-May-03 05:33N 50°34' E 000°32'2410.7
2016-May-03 03:20N 50°50' E 001°01'912.3
2016-May-03 02:33N 50°56' E 001°12'1312.6
2016-May-03 01:34N 51°04' E 001°27'1111.2
2016-May-03 00:34N 51°11' E 001°41'1010.2
2016-May-02 23:33N 51°19' E 001°51'10 9.7
2016-May-02 22:33N 51°27' E 001°59'10 9.6
2016-May-02 21:34N 51°35' E 002°09'60 9.8
2016-May-02 15:25N 52°03' E 003°35'1011.4
2016-May-02 14:33N 52°03' E 003°51'1010.1
2016-May-02 13:34N 51°58' E 004°05'2 1.5
2016-May-02 12:32N 51°58' E 004°03'0 0.0
2016-May-02 11:29N 51°58' E 004°03'0 0.0
2016-May-02 10:32N 51°58' E 004°03'0 0.0
2016-May-02 09:26N 51°58' E 004°03'0 0.0
2016-May-02 08:32N 51°58' E 004°03'0 0.0
2016-May-02 07:32N 51°58' E 004°03'0 0.0
2016-May-02 06:32N 51°58' E 004°03'0 0.0
2016-May-02 05:32N 51°58' E 004°03'0 0.0
2016-May-02 04:32N 51°58' E 004°03'0 0.0
2016-May-02 03:32N 51°58' E 004°03'0 0.0
2016-May-02 02:29N 51°58' E 004°03'0 0.0
2016-May-02 01:32N 51°58' E 004°03'0 0.0
2016-May-02 00:29N 51°58' E 004°03'0 0.0
2016-May-01 23:32N 51°58' E 004°03'0 0.0
2016-May-01 22:32N 51°58' E 004°03'0 0.0
2016-May-01 21:32N 51°58' E 004°03'0 0.0
2016-May-01 20:32N 51°58' E 004°03'0 0.0
2016-May-01 19:32N 51°58' E 004°03'0 0.0
2016-May-01 18:32N 51°58' E 004°03'0 0.0
2016-May-01 17:32N 51°58' E 004°03'0 0.0
2016-May-01 16:32N 51°58' E 004°03'0 0.0
2016-May-01 15:32N 51°58' E 004°03'0 0.0
2016-May-01 14:29N 51°58' E 004°03'1 0.7
2016-May-01 13:33N 51°58' E 004°04'7 7.0
2016-May-01 12:33N 51°58' E 003°52'3 2.4
2016-May-01 11:26N 51°56' E 003°48'0 0.0
2016-May-01 10:20N 51°56' E 003°48'0 0.0
2016-May-01 09:29N 51°56' E 003°48'0 0.0
2016-May-01 08:32N 51°56' E 003°48'0 0.0
2016-May-01 07:32N 51°56' E 003°48'0 0.1
2016-May-01 06:32N 51°56' E 003°48'0 0.1
2016-May-01 05:32N 51°56' E 003°48'0 0.0
2016-May-01 04:32N 51°56' E 003°48'0 0.0
2016-May-01 03:32N 51°56' E 003°48'0 0.0
2016-May-01 02:32N 51°56' E 003°48'0 0.0
2016-May-01 01:32N 51°56' E 003°48'0 0.0
2016-May-01 00:32N 51°56' E 003°48'0 0.0
2016-Apr-30 23:29N 51°56' E 003°48'0 0.1
2016-Apr-30 22:26N 51°56' E 003°48'0 0.0
2016-Apr-30 21:32N 51°56' E 003°48'0 0.0
2016-Apr-30 20:32N 51°56' E 003°48'0 0.0
2016-Apr-30 19:32N 51°56' E 003°48'0 0.0
2016-Apr-30 18:32N 51°56' E 003°48'0 0.1
2016-Apr-30 17:32N 51°56' E 003°48'0 0.0
2016-Apr-30 16:32N 51°56' E 003°48'0 0.0
2016-Apr-30 15:32N 51°56' E 003°48'0 0.0
2016-Apr-30 14:32N 51°56' E 003°48'0 0.0
2016-Apr-30 13:32N 51°56' E 003°48'0 0.0
2016-Apr-30 12:29N 51°56' E 003°48'0 0.0
2016-Apr-30 11:32N 51°56' E 003°48'0 0.0
2016-Apr-30 10:32N 51°56' E 003°48'0 0.1
2016-Apr-30 09:20N 51°56' E 003°49'0 0.0
2016-Apr-30 08:32N 51°56' E 003°49'0 0.0
2016-Apr-30 07:32N 51°56' E 003°49'0 0.0
2016-Apr-30 06:20N 51°56' E 003°49'0 0.0
2016-Apr-30 05:20N 51°56' E 003°49'0 0.1
2016-Apr-30 04:32N 51°56' E 003°49'0 0.0
2016-Apr-30 03:32N 51°56' E 003°48'0 0.1
2016-Apr-30 02:32N 51°56' E 003°48'0 0.0
2016-Apr-30 01:32N 51°56' E 003°48'0 0.0
2016-Apr-30 00:29N 51°56' E 003°48'0 0.1
2016-Apr-29 23:26N 51°56' E 003°49'0 0.0
2016-Apr-29 22:29N 51°56' E 003°49'0 0.0
2016-Apr-29 21:29N 51°56' E 003°48'0 0.0
2016-Apr-29 20:29N 51°56' E 003°48'0 0.0
2016-Apr-29 19:32N 51°56' E 003°49'0 0.0
2016-Apr-29 18:32N 51°56' E 003°49'0 0.0
2016-Apr-29 17:32N 51°56' E 003°48'0 0.0
2016-Apr-29 16:32N 51°56' E 003°48'0 0.0
2016-Apr-29 15:32N 51°56' E 003°48'0 0.0
2016-Apr-29 14:29N 51°56' E 003°49'0 0.0
2016-Apr-29 13:32N 51°56' E 003°49'0 0.0
2016-Apr-29 12:26N 51°56' E 003°49'0 0.0
2016-Apr-29 11:32N 51°56' E 003°49'0 0.0
2016-Apr-29 10:32N 51°56' E 003°49'0 0.0
2016-Apr-29 09:14N 51°56' E 003°48'0 0.0
2016-Apr-29 08:29N 51°56' E 003°48'0 0.0
2016-Apr-29 07:29N 51°56' E 003°48'0 0.0
2016-Apr-29 06:32N 51°56' E 003°48'0 0.0
2016-Apr-29 05:26N 51°56' E 003°49'0 0.0
2016-Apr-29 04:32N 51°56' E 003°48'0 0.0
2016-Apr-29 03:32N 51°56' E 003°48'0 0.1
2016-Apr-29 02:26N 51°57' E 003°48'0 0.0
2016-Apr-29 01:33N 51°57' E 003°48'0 0.0
2016-Apr-29 00:33N 51°57' E 003°48'0 0.0
2016-Apr-28 23:33N 51°57' E 003°48'0 0.0
2016-Apr-28 22:33N 51°56' E 003°48'0 0.0
2016-Apr-28 21:33N 51°57' E 003°48'0 0.1
2016-Apr-28 20:33N 51°56' E 003°48'2010.2
2016-Apr-28 18:33N 51°48' E 003°18'1110.3
2016-Apr-28 17:30N 51°37' E 003°22'1112.3
2016-Apr-28 16:34N 51°27' E 003°31'8 7.8
2016-Apr-28 15:34N 51°24' E 003°43'8 8.1
2016-Apr-28 14:34N 51°22' E 003°55'5 5.3
2016-Apr-28 13:34N 51°22' E 004°04'8 8.5
2016-Apr-28 12:33N 51°19' E 004°16'3 3.3
2016-Apr-28 11:33N 51°17' E 004°20'1 1.3
2016-Apr-28 10:33N 51°16' E 004°21'1 0.5
2016-Apr-28 09:32N 51°15' E 004°21'0 0.0
2016-Apr-28 08:32N 51°15' E 004°21'0 0.0
2016-Apr-28 07:32N 51°15' E 004°21'0 0.0
2016-Apr-28 06:32N 51°15' E 004°21'0 0.0
2016-Apr-28 05:32N 51°15' E 004°21'0 0.0
2016-Apr-28 04:32N 51°15' E 004°21'0 0.0
2016-Apr-28 03:32N 51°15' E 004°21'0 0.0
2016-Apr-28 02:32N 51°15' E 004°21'0 0.0
2016-Apr-28 01:32N 51°15' E 004°21'0 0.0
2016-Apr-28 00:32N 51°15' E 004°21'0 0.0
2016-Apr-27 23:32N 51°15' E 004°21'0 0.0
2016-Apr-27 22:32N 51°15' E 004°21'0 0.0
2016-Apr-27 21:32N 51°15' E 004°21'0 0.0
2016-Apr-27 20:32N 51°15' E 004°21'0 0.0
2016-Apr-27 19:32N 51°15' E 004°21'0 0.0
2016-Apr-27 18:32N 51°15' E 004°21'0 0.0
2016-Apr-27 17:32N 51°15' E 004°21'0 0.0
2016-Apr-27 16:32N 51°15' E 004°21'0 0.0
2016-Apr-27 15:31N 51°15' E 004°21'0 0.0
2016-Apr-27 14:32N 51°15' E 004°21'0 0.0
2016-Apr-27 13:32N 51°15' E 004°21'0 0.0
2016-Apr-27 12:32N 51°15' E 004°21'0 0.0
2016-Apr-27 11:31N 51°15' E 004°21'0 0.0
2016-Apr-27 10:31N 51°15' E 004°21'0 0.0
2016-Apr-27 09:32N 51°15' E 004°21'0 0.0
2016-Apr-27 08:32N 51°15' E 004°21'0 0.0
2016-Apr-27 07:32N 51°15' E 004°21'0 0.0
2016-Apr-27 06:32N 51°15' E 004°21'0 0.0
2016-Apr-27 05:31N 51°15' E 004°21'0 0.0
2016-Apr-27 04:31N 51°15' E 004°21'0 0.0
2016-Apr-27 03:31N 51°15' E 004°21'0 0.0
2016-Apr-27 02:31N 51°15' E 004°21'0 0.0
2016-Apr-27 01:32N 51°15' E 004°21'0 0.0
2016-Apr-27 00:28N 51°15' E 004°21'0 0.0
2016-Apr-26 23:31N 51°15' E 004°21'0 0.0
2016-Apr-26 22:31N 51°15' E 004°21'0 0.0
2016-Apr-26 21:32N 51°15' E 004°21'0 0.0
2016-Apr-26 20:31N 51°15' E 004°21'0 0.0
2016-Apr-26 19:28N 51°15' E 004°21'0 0.0
2016-Apr-26 18:31N 51°15' E 004°21'0 0.0
2016-Apr-26 17:31N 51°15' E 004°21'0 0.0
2016-Apr-26 16:31N 51°15' E 004°21'0 0.0
2016-Apr-26 15:31N 51°15' E 004°21'0 0.0
2016-Apr-26 14:31N 51°15' E 004°21'0 0.0
2016-Apr-26 13:31N 51°15' E 004°21'0 0.0
2016-Apr-26 12:31N 51°15' E 004°21'0 0.0
2016-Apr-26 11:31N 51°15' E 004°21'0 0.0
2016-Apr-26 10:31N 51°15' E 004°21'0 0.0
2016-Apr-26 09:31N 51°15' E 004°21'0 0.0
2016-Apr-26 08:31N 51°15' E 004°21'0 0.0
2016-Apr-26 07:31N 51°15' E 004°21'0 0.0
2016-Apr-26 06:31N 51°15' E 004°21'0 0.0
2016-Apr-26 05:22N 51°15' E 004°21'0 0.0
2016-Apr-26 04:28N 51°15' E 004°21'0 0.0
2016-Apr-26 03:31N 51°15' E 004°21'0 0.0
2016-Apr-26 02:31N 51°15' E 004°21'0 0.0
2016-Apr-26 01:31N 51°15' E 004°21'0 0.0
2016-Apr-26 00:31N 51°15' E 004°21'0 0.0
2016-Apr-25 23:31N 51°15' E 004°21'0 0.0
2016-Apr-25 22:31N 51°15' E 004°21'0 0.0
2016-Apr-25 21:28N 51°15' E 004°21'0 0.0
2016-Apr-25 20:31N 51°15' E 004°21'0 0.0
2016-Apr-25 19:31N 51°15' E 004°21'0 0.0
2016-Apr-25 18:31N 51°15' E 004°21'0 0.0
2016-Apr-25 17:31N 51°15' E 004°21'0 0.0
2016-Apr-25 16:31N 51°15' E 004°21'0 0.0
2016-Apr-25 15:28N 51°15' E 004°21'0 0.0
2016-Apr-25 14:31N 51°15' E 004°21'0 0.0
2016-Apr-25 13:31N 51°15' E 004°21'0 0.0
2016-Apr-25 12:31N 51°15' E 004°21'0 0.0
2016-Apr-25 11:31N 51°15' E 004°21'0 0.0
2016-Apr-25 10:31N 51°15' E 004°21'0 0.0
2016-Apr-25 09:31N 51°15' E 004°21'0 0.0
2016-Apr-25 08:31N 51°15' E 004°21'0 0.0
2016-Apr-25 07:28N 51°15' E 004°21'  
Track history (hours):
 
Tides and Currents Weather Stations Pressure Air Temp Water Temp Dewpoint Dewpoint Depression Visibility Wind Speed Wind Dir Waves Ship Positions

M/T Filos

Last reported at 2016-May-05 07:23 UTC. Time now 2016-May-06 01:44 UTC.
Position N 44°24' W 008°03'.

Length 180 m; draft 7.4 m.

Type: Tanker. MMSI: 224561000.

Date/timePositionNaut miles runAvg speedWind from/ knotsBaromVisibWave heightAir tempDewpointWater temp
2016-May-05 07:23N 44°24' W 008°03'1111.7
2016-May-05 06:27N 44°35' W 007°59'1311.3
2016-May-05 05:19N 44°47' W 007°53'31710.5
2016-May-03 23:08N 49°28' W 004°18'2312.0
2016-May-03 21:14N 49°40' W 003°48'812.4
2016-May-03 20:33N 49°44' W 003°37'1211.9
2016-May-03 19:33N 49°50' W 003°21'1110.9
2016-May-03 18:33N 49°56' W 003°06'10 9.8
2016-May-03 17:34N 49°59' W 002°52'10 9.2
2016-May-03 16:29N 50°02' W 002°37'8211.7
2016-May-03 09:30N 50°23' W 000°34'1212.3
2016-May-03 08:33N 50°26' W 000°16'1111.3
2016-May-03 07:33N 50°29' E 000°01'1010.4
2016-May-03 06:33N 50°32' E 000°17'10 9.9
2016-May-03 05:33N 50°34' E 000°32'2410.7
2016-May-03 03:20N 50°50' E 001°01'912.3
2016-May-03 02:33N 50°56' E 001°12'1312.6
2016-May-03 01:34N 51°04' E 001°27'1111.2
2016-May-03 00:34N 51°11' E 001°41'1010.2
2016-May-02 23:33N 51°19' E 001°51'10 9.7
2016-May-02 22:33N 51°27' E 001°59'10 9.6
2016-May-02 21:34N 51°35' E 002°09'60 9.8
2016-May-02 15:25N 52°03' E 003°35'1011.4
2016-May-02 14:33N 52°03' E 003°51'1010.1
2016-May-02 13:34N 51°58' E 004°05'2 1.5
2016-May-02 12:32N 51°58' E 004°03'0 0.0
2016-May-02 11:29N 51°58' E 004°03'0 0.0
2016-May-02 10:32N 51°58' E 004°03'0 0.0
2016-May-02 09:26N 51°58' E 004°03'0 0.0
2016-May-02 08:32N 51°58' E 004°03'0 0.0
2016-May-02 07:32N 51°58' E 004°03'0 0.0
2016-May-02 06:32N 51°58' E 004°03'0 0.0
2016-May-02 05:32N 51°58' E 004°03'0 0.0
2016-May-02 04:32N 51°58' E 004°03'0 0.0
2016-May-02 03:32N 51°58' E 004°03'0 0.0
2016-May-02 02:29N 51°58' E 004°03'0 0.0
2016-May-02 01:32N 51°58' E 004°03'0 0.0
2016-May-02 00:29N 51°58' E 004°03'0 0.0
2016-May-01 23:32N 51°58' E 004°03'0 0.0
2016-May-01 22:32N 51°58' E 004°03'0 0.0
2016-May-01 21:32N 51°58' E 004°03'0 0.0
2016-May-01 20:32N 51°58' E 004°03'0 0.0
2016-May-01 19:32N 51°58' E 004°03'0 0.0
2016-May-01 18:32N 51°58' E 004°03'0 0.0
2016-May-01 17:32N 51°58' E 004°03'0 0.0
2016-May-01 16:32N 51°58' E 004°03'0 0.0
2016-May-01 15:32N 51°58' E 004°03'0 0.0
2016-May-01 14:29N 51°58' E 004°03'1 0.7
2016-May-01 13:33N 51°58' E 004°04'7 7.0
2016-May-01 12:33N 51°58' E 003°52'3 2.4
2016-May-01 11:26N 51°56' E 003°48'0 0.0
2016-May-01 10:20N 51°56' E 003°48'0 0.0
2016-May-01 09:29N 51°56' E 003°48'0 0.0
2016-May-01 08:32N 51°56' E 003°48'0 0.0
2016-May-01 07:32N 51°56' E 003°48'0 0.1
2016-May-01 06:32N 51°56' E 003°48'0 0.1
2016-May-01 05:32N 51°56' E 003°48'0 0.0
2016-May-01 04:32N 51°56' E 003°48'0 0.0
2016-May-01 03:32N 51°56' E 003°48'0 0.0
2016-May-01 02:32N 51°56' E 003°48'0 0.0
2016-May-01 01:32N 51°56' E 003°48'0 0.0
2016-May-01 00:32N 51°56' E 003°48'0 0.0
2016-Apr-30 23:29N 51°56' E 003°48'0 0.1
2016-Apr-30 22:26N 51°56' E 003°48'0 0.0
2016-Apr-30 21:32N 51°56' E 003°48'0 0.0
2016-Apr-30 20:32N 51°56' E 003°48'0 0.0
2016-Apr-30 19:32N 51°56' E 003°48'0 0.0
2016-Apr-30 18:32N 51°56' E 003°48'0 0.1
2016-Apr-30 17:32N 51°56' E 003°48'0 0.0
2016-Apr-30 16:32N 51°56' E 003°48'0 0.0
2016-Apr-30 15:32N 51°56' E 003°48'0 0.0
2016-Apr-30 14:32N 51°56' E 003°48'0 0.0
2016-Apr-30 13:32N 51°56' E 003°48'0 0.0
2016-Apr-30 12:29N 51°56' E 003°48'0 0.0
2016-Apr-30 11:32N 51°56' E 003°48'0 0.0
2016-Apr-30 10:32N 51°56' E 003°48'0 0.1
2016-Apr-30 09:20N 51°56' E 003°49'0 0.0
2016-Apr-30 08:32N 51°56' E 003°49'0 0.0
2016-Apr-30 07:32N 51°56' E 003°49'0 0.0
2016-Apr-30 06:20N 51°56' E 003°49'0 0.0
2016-Apr-30 05:20N 51°56' E 003°49'0 0.1
2016-Apr-30 04:32N 51°56' E 003°49'0 0.0
2016-Apr-30 03:32N 51°56' E 003°48'0 0.1
2016-Apr-30 02:32N 51°56' E 003°48'0 0.0
2016-Apr-30 01:32N 51°56' E 003°48'0 0.0
2016-Apr-30 00:29N 51°56' E 003°48'0 0.1
2016-Apr-29 23:26N 51°56' E 003°49'0 0.0
2016-Apr-29 22:29N 51°56' E 003°49'0 0.0
2016-Apr-29 21:29N 51°56' E 003°48'0 0.0
2016-Apr-29 20:29N 51°56' E 003°48'0 0.0
2016-Apr-29 19:32N 51°56' E 003°49'0 0.0
2016-Apr-29 18:32N 51°56' E 003°49'0 0.0
2016-Apr-29 17:32N 51°56' E 003°48'0 0.0
2016-Apr-29 16:32N 51°56' E 003°48'0 0.0
2016-Apr-29 15:32N 51°56' E 003°48'0 0.0
2016-Apr-29 14:29N 51°56' E 003°49'0 0.0
2016-Apr-29 13:32N 51°56' E 003°49'0 0.0
2016-Apr-29 12:26N 51°56' E 003°49'0 0.0
2016-Apr-29 11:32N 51°56' E 003°49'0 0.0
2016-Apr-29 10:32N 51°56' E 003°49'0 0.0
2016-Apr-29 09:14N 51°56' E 003°48'0 0.0
2016-Apr-29 08:29N 51°56' E 003°48'0 0.0
2016-Apr-29 07:29N 51°56' E 003°48'0 0.0
2016-Apr-29 06:32N 51°56' E 003°48'0 0.0
2016-Apr-29 05:26N 51°56' E 003°49'0 0.0
2016-Apr-29 04:32N 51°56' E 003°48'0 0.0
2016-Apr-29 03:32N 51°56' E 003°48'0 0.1
2016-Apr-29 02:26N 51°57' E 003°48'0 0.0
2016-Apr-29 01:33N 51°57' E 003°48'0 0.0
2016-Apr-29 00:33N 51°57' E 003°48'0 0.0
2016-Apr-28 23:33N 51°57' E 003°48'0 0.0
2016-Apr-28 22:33N 51°56' E 003°48'0 0.0
2016-Apr-28 21:33N 51°57' E 003°48'0 0.1
2016-Apr-28 20:33N 51°56' E 003°48'2010.2
2016-Apr-28 18:33N 51°48' E 003°18'1110.3
2016-Apr-28 17:30N 51°37' E 003°22'1112.3
2016-Apr-28 16:34N 51°27' E 003°31'8 7.8
2016-Apr-28 15:34N 51°24' E 003°43'8 8.1
2016-Apr-28 14:34N 51°22' E 003°55'5 5.3
2016-Apr-28 13:34N 51°22' E 004°04'8 8.5
2016-Apr-28 12:33N 51°19' E 004°16'3 3.3
2016-Apr-28 11:33N 51°17' E 004°20'1 1.3
2016-Apr-28 10:33N 51°16' E 004°21'1 0.5
2016-Apr-28 09:32N 51°15' E 004°21'0 0.0
2016-Apr-28 08:32N 51°15' E 004°21'0 0.0
2016-Apr-28 07:32N 51°15' E 004°21'0 0.0
2016-Apr-28 06:32N 51°15' E 004°21'0 0.0
2016-Apr-28 05:32N 51°15' E 004°21'0 0.0
2016-Apr-28 04:32N 51°15' E 004°21'0 0.0
2016-Apr-28 03:32N 51°15' E 004°21'0 0.0
2016-Apr-28 02:32N 51°15' E 004°21'0 0.0
2016-Apr-28 01:32N 51°15' E 004°21'0 0.0
2016-Apr-28 00:32N 51°15' E 004°21'0 0.0
2016-Apr-27 23:32N 51°15' E 004°21'0 0.0
2016-Apr-27 22:32N 51°15' E 004°21'0 0.0
2016-Apr-27 21:32N 51°15' E 004°21'0 0.0
2016-Apr-27 20:32N 51°15' E 004°21'0 0.0
2016-Apr-27 19:32N 51°15' E 004°21'0 0.0
2016-Apr-27 18:32N 51°15' E 004°21'0 0.0
2016-Apr-27 17:32N 51°15' E 004°21'0 0.0
2016-Apr-27 16:32N 51°15' E 004°21'0 0.0
2016-Apr-27 15:31N 51°15' E 004°21'0 0.0
2016-Apr-27 14:32N 51°15' E 004°21'0 0.0
2016-Apr-27 13:32N 51°15' E 004°21'0 0.0
2016-Apr-27 12:32N 51°15' E 004°21'0 0.0
2016-Apr-27 11:31N 51°15' E 004°21'0 0.0
2016-Apr-27 10:31N 51°15' E 004°21'0 0.0
2016-Apr-27 09:32N 51°15' E 004°21'0 0.0
2016-Apr-27 08:32N 51°15' E 004°21'0 0.0
2016-Apr-27 07:32N 51°15' E 004°21'0 0.0
2016-Apr-27 06:32N 51°15' E 004°21'0 0.0
2016-Apr-27 05:31N 51°15' E 004°21'0 0.0
2016-Apr-27 04:31N 51°15' E 004°21'0 0.0
2016-Apr-27 03:31N 51°15' E 004°21'0 0.0
2016-Apr-27 02:31N 51°15' E 004°21'0 0.0
2016-Apr-27 01:32N 51°15' E 004°21'0 0.0
2016-Apr-27 00:28N 51°15' E 004°21'0 0.0
2016-Apr-26 23:31N 51°15' E 004°21'0 0.0
2016-Apr-26 22:31N 51°15' E 004°21'0 0.0
2016-Apr-26 21:32N 51°15' E 004°21'0 0.0
2016-Apr-26 20:31N 51°15' E 004°21'0 0.0
2016-Apr-26 19:28N 51°15' E 004°21'0 0.0
2016-Apr-26 18:31N 51°15' E 004°21'0 0.0
2016-Apr-26 17:31N 51°15' E 004°21'0 0.0
2016-Apr-26 16:31N 51°15' E 004°21'0 0.0
2016-Apr-26 15:31N 51°15' E 004°21'0 0.0
2016-Apr-26 14:31N 51°15' E 004°21'0 0.0
2016-Apr-26 13:31N 51°15' E 004°21'0 0.0
2016-Apr-26 12:31N 51°15' E 004°21'0 0.0
2016-Apr-26 11:31N 51°15' E 004°21'0 0.0
2016-Apr-26 10:31N 51°15' E 004°21'0 0.0
2016-Apr-26 09:31N 51°15' E 004°21'0 0.0
2016-Apr-26 08:31N 51°15' E 004°21'0 0.0
2016-Apr-26 07:31N 51°15' E 004°21'0 0.0
2016-Apr-26 06:31N 51°15' E 004°21'0 0.0
2016-Apr-26 05:22N 51°15' E 004°21'0 0.0
2016-Apr-26 04:28N 51°15' E 004°21'0 0.0
2016-Apr-26 03:31N 51°15' E 004°21'0 0.0
2016-Apr-26 02:31N 51°15' E 004°21'0 0.0
2016-Apr-26 01:31N 51°15' E 004°21'0 0.0
2016-Apr-26 00:31N 51°15' E 004°21'0 0.0
2016-Apr-25 23:31N 51°15' E 004°21'0 0.0
2016-Apr-25 22:31N 51°15' E 004°21'0 0.0
2016-Apr-25 21:28N 51°15' E 004°21'0 0.0
2016-Apr-25 20:31N 51°15' E 004°21'0 0.0
2016-Apr-25 19:31N 51°15' E 004°21'0 0.0
2016-Apr-25 18:31N 51°15' E 004°21'0 0.0
2016-Apr-25 17:31N 51°15' E 004°21'0 0.0
2016-Apr-25 16:31N 51°15' E 004°21'0 0.0
2016-Apr-25 15:28N 51°15' E 004°21'0 0.0
2016-Apr-25 14:31N 51°15' E 004°21'0 0.0
2016-Apr-25 13:31N 51°15' E 004°21'0 0.0
2016-Apr-25 12:31N 51°15' E 004°21'0 0.0
2016-Apr-25 11:31N 51°15' E 004°21'0 0.0
2016-Apr-25 10:31N 51°15' E 004°21'0 0.0
2016-Apr-25 09:31N 51°15' E 004°21'0 0.0
2016-Apr-25 08:31N 51°15' E 004°21'0 0.0
2016-Apr-25 07:28N 51°15' E 004°21'  

Dump ship's entire track history